Water Valley, Texas
Current Conditions -  °F | °C
As of 9:51 PM on Wednesday 26 Nov 2014 (Local Time) from KSJT Reporting Station
Clear Clear  
Wind Chill:   Ceiling: Unl
Heat Index:   Visibility: 10mi
Dew Point:   Wind: 9mph
Humidity: 68%   Direction: 40°NE
Pressure: 30.35"   Gusts: NA
Location:  31.67°N, 100.72°W
Report Text: KSJT 270351Z AUTO 04008KT 10SM CLR 07/01 A3035 RMK AO2 SLP278 T00670011
Loading
Personal Weather Stations






























Interactive Weather Map New forecast layout! Learn more

10-Day Weather Forecast

Advertisements
Track Severe Weather on mobile